createdAt,value
2019-01-10T00:00:01.256Z,0
2019-01-10T00:01:01.747Z,0
2019-01-10T00:02:01.575Z,0
2019-01-10T00:03:01.948Z,0
2019-01-10T00:04:01.741Z,0
2019-01-10T00:05:01.959Z,0
2019-01-10T00:06:00.933Z,0
2019-01-10T00:07:01.686Z,0
2019-01-10T00:08:01.396Z,0
2019-01-10T00:09:01.653Z,0
2019-01-10T00:10:01.627Z,0
2019-01-10T00:11:01.397Z,0
2019-01-10T00:12:01.367Z,0
2019-01-10T00:13:01.659Z,0
2019-01-10T00:14:01.587Z,0
2019-01-10T00:15:01.319Z,0
2019-01-10T00:16:01.588Z,0
2019-01-10T00:17:01.429Z,0
2019-01-10T00:18:01.287Z,0
2019-01-10T00:19:02.144Z,0
2019-01-10T00:20:01.532Z,0
2019-01-10T00:21:01.768Z,0
2019-01-10T00:22:01.539Z,0
2019-01-10T00:23:01.741Z,0
2019-01-10T00:24:01.462Z,0
2019-01-10T00:25:01.201Z,0
2019-01-10T00:26:01.283Z,0
2019-01-10T00:27:01.683Z,0
2019-01-10T00:28:01.653Z,0
2019-01-10T00:29:01.682Z,0
2019-01-10T00:30:01.147Z,0
2019-01-10T00:31:01.378Z,0
2019-01-10T00:32:01.407Z,0
2019-01-10T00:33:01.383Z,0
2019-01-10T00:34:02.942Z,0
2019-01-10T00:35:01.085Z,0
2019-01-10T00:36:01.084Z,0
2019-01-10T00:37:01.582Z,0
2019-01-10T00:38:01.331Z,0
2019-01-10T00:39:01.288Z,0
2019-01-10T00:40:01.037Z,0
2019-01-10T00:41:01.276Z,0
2019-01-10T00:42:01.277Z,0
2019-01-10T00:43:01.013Z,0
2019-01-10T00:44:01.486Z,0
2019-01-10T00:45:01.214Z,0
2019-01-10T00:46:00.704Z,0
2019-01-10T00:47:01.465Z,0
2019-01-10T00:48:01.195Z,0
2019-01-10T00:49:00.663Z,0
2019-01-10T00:50:01.689Z,0
2019-01-10T00:51:01.442Z,0
2019-01-10T00:52:01.401Z,0
2019-01-10T00:53:01.373Z,0
2019-01-10T00:54:01.118Z,0
2019-01-10T00:55:00.859Z,0
2019-01-10T00:56:00.851Z,0
2019-01-10T00:57:01.086Z,0
2019-01-10T00:58:01.162Z,0
2019-01-10T00:59:01.288Z,0
2019-01-10T01:00:00.805Z,0
2019-01-10T01:01:00.530Z,0
2019-01-10T01:02:01.021Z,0
2019-01-10T01:03:01.273Z,0
2019-01-10T01:04:00.992Z,0
2019-01-10T01:05:01.290Z,0
2019-01-10T01:06:00.715Z,0
2019-01-10T01:07:00.715Z,0
2019-01-10T01:08:00.962Z,0
2019-01-10T01:09:00.937Z,0
2019-01-10T01:10:00.413Z,0
2019-01-10T01:11:00.905Z,0
2019-01-10T01:12:01.350Z,0
2019-01-10T01:13:07.714Z,0
2019-01-10T01:14:00.614Z,0
2019-01-10T01:15:01.095Z,0
2019-01-10T01:16:01.091Z,0
2019-01-10T01:17:00.400Z,0
2019-01-10T01:18:00.582Z,0
2019-01-10T01:19:01.059Z,0
2019-01-10T01:20:01.416Z,0
2019-01-10T01:21:00.809Z,0
2019-01-10T01:22:00.765Z,0
2019-01-10T01:23:00.795Z,0
2019-01-10T01:24:00.771Z,0
2019-01-10T01:25:00.757Z,0
2019-01-10T01:26:00.469Z,0
2019-01-10T01:27:00.711Z,0
2019-01-10T01:28:00.711Z,0
2019-01-10T01:29:00.709Z,0
2019-01-10T01:30:00.305Z,0
2019-01-10T01:31:00.656Z,0
2019-01-10T01:32:00.909Z,0
2019-01-10T01:33:00.635Z,0
2019-01-10T01:34:00.877Z,0
2019-01-10T01:35:04.109Z,0
2019-01-10T01:36:00.358Z,0
2019-01-10T01:37:00.592Z,0
2019-01-10T01:38:00.838Z,0
2019-01-10T01:39:00.576Z,0
2019-01-10T01:40:00.804Z,0
2019-01-10T01:41:01.682Z,0
2019-01-10T01:42:15.216Z,0
2019-01-10T01:43:09.630Z,0
2019-01-10T01:44:00.030Z,0
2019-01-10T01:45:00.775Z,0
2019-01-10T01:46:00.259Z,0
2019-01-10T01:47:00.725Z,0
2019-01-10T01:48:00.219Z,0
2019-01-10T01:49:00.816Z,0
2019-01-10T01:50:00.775Z,0
2019-01-10T01:51:00.785Z,0
2019-01-10T01:52:00.670Z,0
2019-01-10T01:53:02.892Z,0
2019-01-10T01:54:00.397Z,0
2019-01-10T01:55:00.628Z,0
2019-01-10T01:56:00.643Z,0
2019-01-10T01:57:00.368Z,0
2019-01-10T01:58:00.113Z,0
2019-01-10T01:59:01.998Z,0
2019-01-10T02:00:00.568Z,0
2019-01-10T02:01:00.315Z,0
2019-01-10T02:02:00.297Z,0
2019-01-10T02:03:00.526Z,0
2019-01-10T02:04:00.031Z,0
2019-01-10T02:05:00.595Z,0
2019-01-10T02:06:00.513Z,0
2019-01-10T02:07:00.238Z,0
2019-01-10T02:07:59.745Z,0
2019-01-10T02:09:00.260Z,0
2019-01-10T02:10:00.474Z,0
2019-01-10T02:11:00.238Z,0
2019-01-10T02:12:00.227Z,0
2019-01-10T02:13:00.202Z,0
2019-01-10T02:13:59.933Z,0
2019-01-10T02:15:00.188Z,0
2019-01-10T02:16:00.170Z,0
2019-01-10T02:16:59.977Z,0
2019-01-10T02:18:00.142Z,0
2019-01-10T02:19:00.360Z,0
2019-01-10T02:19:59.838Z,0
2019-01-10T02:21:02.523Z,0
2019-01-10T02:22:00.069Z,0
2019-01-10T02:23:00.066Z,0
2019-01-10T02:24:00.083Z,0
2019-01-10T02:25:00.024Z,0
2019-01-10T02:26:00.047Z,0
2019-01-10T02:26:59.999Z,0
2019-01-10T02:28:00.286Z,0
2019-01-10T02:29:00.250Z,0
2019-01-10T02:29:59.970Z,0
2019-01-10T02:30:59.958Z,0
2019-01-10T02:31:59.976Z,0
2019-01-10T02:33:00.187Z,0
2019-01-10T02:34:00.179Z,0
2019-01-10T02:34:59.688Z,0
2019-01-10T02:35:59.897Z,0
2019-01-10T02:37:00.130Z,0
2019-01-10T02:38:00.134Z,0
2019-01-10T02:38:59.862Z,0
2019-01-10T02:40:00.411Z,0
2019-01-10T02:41:00.128Z,0
2019-01-10T02:41:59.862Z,0
2019-01-10T02:42:59.838Z,0
2019-01-10T02:44:00.092Z,0
2019-01-10T02:44:59.587Z,0
2019-01-10T02:45:59.847Z,0
2019-01-10T02:46:59.780Z,0
2019-01-10T02:48:00.016Z,0
2019-01-10T02:49:00.018Z,0
2019-01-10T02:49:59.284Z,0
2019-01-10T02:51:04.074Z,0
2019-01-10T02:51:59.741Z,0
2019-01-10T02:53:00.070Z,0
2019-01-10T02:53:59.723Z,0
2019-01-10T02:54:59.456Z,0
2019-01-10T02:55:59.960Z,0
2019-01-10T02:56:59.959Z,0
2019-01-10T02:57:59.197Z,0
2019-01-10T02:58:59.909Z,0
2019-01-10T02:59:59.642Z,0
2019-01-10T03:00:59.775Z,0
2019-01-10T03:01:59.913Z,0
2019-01-10T03:03:00.100Z,0
2019-01-10T03:03:59.595Z,0
2019-01-10T03:04:59.577Z,0
2019-01-10T03:05:59.586Z,0
2019-01-10T03:06:59.564Z,0
2019-01-10T03:07:59.552Z,0
2019-01-10T03:08:59.793Z,0
2019-01-10T03:09:59.753Z,0
2019-01-10T03:11:00.326Z,0
2019-01-10T03:11:59.470Z,0
2019-01-10T03:12:59.451Z,0
2019-01-10T03:13:59.454Z,0
2019-01-10T03:14:59.681Z,0
2019-01-10T03:15:59.455Z,0
2019-01-10T03:16:59.420Z,0
2019-01-10T03:17:59.489Z,0
2019-01-10T03:18:59.187Z,0
2019-01-10T03:19:59.683Z,0
2019-01-10T03:21:01.967Z,0
2019-01-10T03:21:59.923Z,0
2019-01-10T03:22:58.847Z,0
2019-01-10T03:23:59.341Z,0
2019-01-10T03:24:59.616Z,0
2019-01-10T03:25:59.615Z,0
2019-01-10T03:26:59.351Z,0
2019-01-10T03:27:59.302Z,0
2019-01-10T03:28:59.046Z,0
2019-01-10T03:29:59.539Z,0
2019-01-10T03:30:59.526Z,0
2019-01-10T03:31:59.540Z,0
2019-01-10T03:32:59.503Z,0
2019-01-10T03:33:59.212Z,0
2019-01-10T03:34:59.248Z,0
2019-01-10T03:35:59.441Z,0
2019-01-10T03:36:59.489Z,0
2019-01-10T03:37:59.190Z,0
2019-01-10T03:38:59.452Z,0
2019-01-10T03:39:59.157Z,0
2019-01-10T03:40:58.635Z,0
2019-01-10T03:41:59.392Z,0
2019-01-10T03:42:59.141Z,0
2019-01-10T03:43:59.387Z,0
2019-01-10T03:44:59.336Z,0
2019-01-10T03:45:59.336Z,0
2019-01-10T03:46:59.339Z,0
2019-01-10T03:47:59.078Z,0
2019-01-10T03:48:59.303Z,0
2019-01-10T03:49:59.019Z,0
2019-01-10T03:50:59.296Z,0
2019-01-10T03:51:59.620Z,0
2019-01-10T03:52:59.049Z,0
2019-01-10T03:53:59.245Z,0
2019-01-10T03:54:58.757Z,0
2019-01-10T03:55:59.210Z,0
2019-01-10T03:56:58.977Z,0
2019-01-10T03:57:58.941Z,0
2019-01-10T03:58:59.174Z,0
2019-01-10T04:00:00.096Z,0
2019-01-10T04:00:59.149Z,0
2019-01-10T04:01:59.122Z,0
2019-01-10T04:02:58.872Z,0
2019-01-10T04:03:59.226Z,0
2019-01-10T04:04:58.865Z,0
2019-01-10T04:05:59.079Z,0
2019-01-10T04:06:58.900Z,0
2019-01-10T04:07:59.063Z,0
2019-01-10T04:08:58.836Z,0
2019-01-10T04:09:59.027Z,0
2019-01-10T04:10:59.021Z,0
2019-01-10T04:11:59.042Z,0
2019-01-10T04:12:59.016Z,0
2019-01-10T04:14:06.824Z,0
2019-01-10T04:14:58.987Z,0
2019-01-10T04:15:58.731Z,0
2019-01-10T04:16:58.720Z,0
2019-01-10T04:17:58.977Z,0
2019-01-10T04:18:58.714Z,0
2019-01-10T04:19:59.852Z,0
2019-01-10T04:20:58.250Z,0
2019-01-10T04:22:00.967Z,0
2019-01-10T04:22:58.148Z,0
2019-01-10T04:23:58.900Z,0
2019-01-10T04:24:58.640Z,0
2019-01-10T04:25:58.123Z,0
2019-01-10T04:26:58.855Z,0
2019-01-10T04:27:58.598Z,0
2019-01-10T04:28:58.572Z,0
2019-01-10T04:29:58.796Z,0
2019-01-10T04:30:58.570Z,0
2019-01-10T04:31:58.528Z,0
2019-01-10T04:32:58.806Z,0
2019-01-10T04:33:58.773Z,0
2019-01-10T04:34:58.522Z,0
2019-01-10T04:35:58.492Z,0
2019-01-10T04:36:59.575Z,0
2019-01-10T04:37:58.738Z,0
2019-01-10T04:38:58.200Z,0
2019-01-10T04:39:58.428Z,0
2019-01-10T04:40:58.428Z,0
2019-01-10T04:41:58.672Z,0
2019-01-10T04:42:58.400Z,0
2019-01-10T04:44:06.640Z,0
2019-01-10T04:44:58.365Z,0
2019-01-10T04:45:58.622Z,0
2019-01-10T04:46:58.622Z,0
2019-01-10T04:47:58.193Z,0
2019-01-10T04:48:58.338Z,0
2019-01-10T04:49:58.339Z,0
2019-01-10T04:50:58.404Z,0
2019-01-10T04:51:59.651Z,0
2019-01-10T04:52:58.547Z,0
2019-01-10T04:53:58.513Z,0
2019-01-10T04:55:03.278Z,0
2019-01-10T04:55:58.492Z,0
2019-01-10T04:56:58.509Z,0
2019-01-10T04:57:59.802Z,0
2019-01-10T04:58:58.511Z,0
2019-01-10T04:59:58.292Z,0
2019-01-10T05:00:58.450Z,0
2019-01-10T05:01:58.188Z,0
2019-01-10T05:02:58.415Z,0
2019-01-10T05:03:57.922Z,0
2019-01-10T05:04:58.440Z,0
2019-01-10T05:05:58.411Z,0
2019-01-10T05:06:58.359Z,0
2019-01-10T05:07:58.577Z,0
2019-01-10T05:08:58.094Z,0
2019-01-10T05:09:58.155Z,0
2019-01-10T05:10:58.049Z,0
2019-01-10T05:11:58.298Z,0
2019-01-10T05:12:58.169Z,0
2019-01-10T05:13:58.031Z,0
2019-01-10T05:14:57.782Z,0
2019-01-10T05:15:58.300Z,0
2019-01-10T05:16:58.148Z,0
2019-01-10T05:17:57.743Z,0
2019-01-10T05:18:58.271Z,0
2019-01-10T05:19:57.738Z,0
2019-01-10T05:20:58.214Z,0
2019-01-10T05:21:58.222Z,0
2019-01-10T05:23:00.099Z,0
2019-01-10T05:23:57.688Z,0
2019-01-10T05:24:58.184Z,0
2019-01-10T05:25:58.154Z,0
2019-01-10T05:26:57.891Z,0
2019-01-10T05:27:58.152Z,0
2019-01-10T05:28:58.125Z,0
2019-01-10T05:29:57.611Z,0
2019-01-10T05:30:58.081Z,0
2019-01-10T05:31:57.845Z,0
2019-01-10T05:32:57.113Z,0
2019-01-10T05:33:57.810Z,0
2019-01-10T05:34:57.312Z,0
2019-01-10T05:35:58.133Z,0
2019-01-10T05:36:57.788Z,0
2019-01-10T05:37:58.050Z,0
2019-01-10T05:38:57.778Z,0
2019-01-10T05:39:57.971Z,0
2019-01-10T05:40:57.720Z,0
2019-01-10T05:41:57.532Z,0
2019-01-10T05:42:57.943Z,0
2019-01-10T05:43:57.723Z,0
2019-01-10T05:44:57.767Z,0
2019-01-10T05:45:57.734Z,0
2019-01-10T05:46:58.264Z,0
2019-01-10T05:47:57.652Z,0
2019-01-10T05:48:57.411Z,0
2019-01-10T05:49:57.897Z,0
2019-01-10T05:50:57.651Z,0
2019-01-10T05:51:57.618Z,0
2019-01-10T05:52:59.660Z,0
2019-01-10T05:53:57.822Z,0
2019-01-10T05:54:57.323Z,0
2019-01-10T05:55:57.569Z,0
2019-01-10T05:56:57.579Z,0
2019-01-10T05:57:57.530Z,0
2019-01-10T05:58:57.537Z,0
2019-01-10T05:59:57.265Z,0
2019-01-10T06:00:57.017Z,0
2019-01-10T06:01:57.753Z,0
2019-01-10T06:02:57.838Z,0
2019-01-10T06:04:02.405Z,0
2019-01-10T06:04:57.451Z,0
2019-01-10T06:05:57.522Z,0
2019-01-10T06:06:57.191Z,0
2019-01-10T06:07:58.512Z,0
2019-01-10T06:08:57.457Z,0
2019-01-10T06:09:57.412Z,0
2019-01-10T06:10:56.888Z,0
2019-01-10T06:11:57.364Z,0
2019-01-10T06:12:57.116Z,0
2019-01-10T06:13:57.485Z,0
2019-01-10T06:14:57.577Z,0
2019-01-10T06:15:56.820Z,0
2019-01-10T06:16:57.566Z,0
2019-01-10T06:17:57.551Z,0
2019-01-10T06:18:56.800Z,0
2019-01-10T06:19:57.537Z,0
2019-01-10T06:20:57.277Z,0
2019-01-10T06:21:56.991Z,0
2019-01-10T06:23:01.462Z,0
2019-01-10T06:23:57.482Z,0
2019-01-10T06:24:56.969Z,0
2019-01-10T06:25:57.277Z,0
2019-01-10T06:26:56.938Z,0
2019-01-10T06:27:57.313Z,0
2019-01-10T06:28:56.910Z,0
2019-01-10T06:29:56.924Z,0
2019-01-10T06:30:56.652Z,0
2019-01-10T06:31:56.633Z,0
2019-01-10T06:32:57.132Z,0
2019-01-10T06:33:57.139Z,0
2019-01-10T06:34:57.348Z,0
2019-01-10T06:35:56.845Z,0
2019-01-10T06:36:57.080Z,0
2019-01-10T06:37:56.561Z,0
2019-01-10T06:38:57.059Z,0
2019-01-10T06:39:57.036Z,0
2019-01-10T06:40:57.026Z,0
2019-01-10T06:41:57.000Z,0
2019-01-10T06:42:56.592Z,0
2019-01-10T06:43:56.762Z,0
2019-01-10T06:44:56.754Z,0
2019-01-10T06:45:56.731Z,0
2019-01-10T06:46:56.716Z,0
2019-01-10T06:47:56.982Z,0
2019-01-10T06:48:56.679Z,0
2019-01-10T06:49:56.914Z,0
2019-01-10T06:50:56.643Z,0
2019-01-10T06:51:56.657Z,0
2019-01-10T06:52:57.136Z,0
2019-01-10T06:53:57.493Z,0
2019-01-10T06:55:05.555Z,0
2019-01-10T06:55:56.603Z,0
2019-01-10T06:56:56.577Z,0
2019-01-10T06:57:56.570Z,0
2019-01-10T06:58:56.311Z,0
2019-01-10T06:59:57.361Z,0
2019-01-10T07:00:56.828Z,0
2019-01-10T07:01:56.292Z,0
2019-01-10T07:02:56.791Z,0
2019-01-10T07:03:56.754Z,0
2019-01-10T07:04:56.233Z,0
2019-01-10T07:05:56.728Z,0
2019-01-10T07:06:56.709Z,0
2019-01-10T07:08:05.344Z,0
2019-01-10T07:08:56.999Z,0
2019-01-10T07:09:56.696Z,0
2019-01-10T07:10:56.197Z,0
2019-01-10T07:11:56.401Z,0
2019-01-10T07:12:56.404Z,0
2019-01-10T07:13:56.398Z,0
2019-01-10T07:15:02.396Z,0
2019-01-10T07:15:56.386Z,0
2019-01-10T07:17:02.937Z,0
2019-01-10T07:17:56.108Z,0
2019-01-10T07:18:57.299Z,0
2019-01-10T07:19:56.058Z,0
2019-01-10T07:20:57.118Z,0
2019-01-10T07:21:56.785Z,0
2019-01-10T07:22:56.634Z,0
2019-01-10T07:23:56.839Z,0
2019-01-10T07:24:56.748Z,0
2019-01-10T07:25:56.497Z,0
2019-01-10T07:26:56.238Z,0
2019-01-10T07:27:59.024Z,0
2019-01-10T07:28:56.806Z,0
2019-01-10T07:29:56.680Z,5
2019-01-10T07:30:56.692Z,5
2019-01-10T07:31:56.458Z,5
2019-01-10T07:32:56.247Z,5
2019-01-10T07:33:56.411Z,5
2019-01-10T07:34:56.651Z,5
2019-01-10T07:35:56.389Z,5
2019-01-10T07:36:56.380Z,5
2019-01-10T07:37:56.348Z,10
2019-01-10T07:38:55.668Z,10
2019-01-10T07:39:56.081Z,10
2019-01-10T07:40:56.309Z,10
2019-01-10T07:41:56.055Z,10
2019-01-10T07:42:56.274Z,10
2019-01-10T07:43:56.261Z,10
2019-01-10T07:45:05.191Z,10
2019-01-10T07:45:56.257Z,15
2019-01-10T07:46:56.231Z,15
2019-01-10T07:47:55.995Z,15
2019-01-10T07:48:56.236Z,15
2019-01-10T07:49:56.192Z,15
2019-01-10T07:50:56.207Z,15
2019-01-10T07:51:55.949Z,15
2019-01-10T07:52:56.414Z,15
2019-01-10T07:54:00.775Z,15
2019-01-10T07:54:56.391Z,15
2019-01-10T07:55:56.371Z,15
2019-01-10T07:56:56.139Z,15
2019-01-10T07:57:56.124Z,20
2019-01-10T07:58:56.437Z,20
2019-01-10T07:59:56.085Z,20
2019-01-10T08:00:56.439Z,20
2019-01-10T08:01:55.864Z,20
2019-01-10T08:02:56.074Z,20
2019-01-10T08:03:56.051Z,20
2019-01-10T08:04:56.062Z,20
2019-01-10T08:05:55.757Z,20
2019-01-10T08:06:55.983Z,20
2019-01-10T08:07:55.979Z,20
2019-01-10T08:08:56.265Z,15
2019-01-10T08:09:55.989Z,15
2019-01-10T08:10:55.974Z,15
2019-01-10T08:12:04.859Z,15
2019-01-10T08:12:55.705Z,15
2019-01-10T08:13:55.423Z,15
2019-01-10T08:14:55.664Z,15
2019-01-10T08:15:56.158Z,15
2019-01-10T08:16:56.138Z,15
2019-01-10T08:17:55.625Z,15
2019-01-10T08:18:56.340Z,15
2019-01-10T08:19:55.346Z,15
2019-01-10T08:20:55.593Z,20
2019-01-10T08:21:56.245Z,20
2019-01-10T08:22:55.575Z,20
2019-01-10T08:23:55.804Z,20
2019-01-10T08:24:56.628Z,15
2019-01-10T08:25:55.285Z,15
2019-01-10T08:26:57.525Z,15
2019-01-10T08:27:55.522Z,15
2019-01-10T08:28:55.752Z,15
2019-01-10T08:29:55.979Z,15
2019-01-10T08:30:55.742Z,15
2019-01-10T08:31:55.723Z,15
2019-01-10T08:32:55.939Z,15
2019-01-10T08:33:55.691Z,15
2019-01-10T08:34:56.135Z,20
2019-01-10T08:35:55.677Z,20
2019-01-10T08:36:55.917Z,20
2019-01-10T08:37:55.133Z,25
2019-01-10T08:38:55.606Z,25
2019-01-10T08:39:55.675Z,30
2019-01-10T08:40:55.583Z,30
2019-01-10T08:41:55.854Z,35
2019-01-10T08:42:55.342Z,35
2019-01-10T08:43:55.590Z,35
2019-01-10T08:44:55.412Z,30
2019-01-10T08:45:55.559Z,30
2019-01-10T08:46:55.570Z,30
2019-01-10T08:47:55.284Z,30
2019-01-10T08:48:55.800Z,30
2019-01-10T08:49:55.272Z,35
2019-01-10T08:50:55.277Z,40
2019-01-10T08:51:55.498Z,45
2019-01-10T08:52:55.641Z,50
2019-01-10T08:54:03.342Z,50
2019-01-10T08:54:58.989Z,50
2019-01-10T08:55:55.000Z,50
2019-01-10T08:56:55.450Z,55
2019-01-10T08:57:55.450Z,55
2019-01-10T08:58:55.669Z,60
2019-01-10T08:59:55.435Z,65
2019-01-10T09:00:55.408Z,65
2019-01-10T09:01:55.370Z,65
2019-01-10T09:02:55.422Z,65
2019-01-10T09:03:56.295Z,65
2019-01-10T09:04:55.109Z,65
2019-01-10T09:05:55.566Z,65
2019-01-10T09:06:55.312Z,60
2019-01-10T09:07:55.317Z,60
2019-01-10T09:08:55.539Z,60
2019-01-10T09:09:57.184Z,55
2019-01-10T09:10:55.287Z,50
2019-01-10T09:11:55.257Z,50
2019-01-10T09:12:55.011Z,50
2019-01-10T09:13:54.830Z,50
2019-01-10T09:14:54.983Z,55
2019-01-10T09:15:55.224Z,55
2019-01-10T09:16:55.460Z,60
2019-01-10T09:17:55.197Z,60
2019-01-10T09:18:55.460Z,65
2019-01-10T09:19:55.527Z,70
2019-01-10T09:21:03.911Z,65
2019-01-10T09:21:54.919Z,60
2019-01-10T09:22:55.418Z,55
2019-01-10T09:23:54.875Z,50
2019-01-10T09:24:56.214Z,50
2019-01-10T09:25:55.106Z,55
2019-01-10T09:26:55.329Z,55
2019-01-10T09:27:54.868Z,55
2019-01-10T09:28:55.374Z,55
2019-01-10T09:29:54.792Z,55
2019-01-10T09:30:55.098Z,55
2019-01-10T09:31:55.063Z,50
2019-01-10T09:32:55.069Z,50
2019-01-10T09:33:55.011Z,50
2019-01-10T09:34:54.763Z,50
2019-01-10T09:35:55.032Z,45
2019-01-10T09:36:54.747Z,45
2019-01-10T09:37:54.483Z,45
2019-01-10T09:38:55.215Z,45
2019-01-10T09:39:54.711Z,45
2019-01-10T09:40:54.818Z,45
2019-01-10T09:41:54.728Z,45
2019-01-10T09:42:54.415Z,45
2019-01-10T09:43:54.649Z,45
2019-01-10T09:44:54.909Z,50
2019-01-10T09:45:54.666Z,50
2019-01-10T09:46:55.142Z,55
2019-01-10T09:47:54.624Z,55
2019-01-10T09:48:54.881Z,55
2019-01-10T09:49:54.593Z,55
2019-01-10T09:50:54.593Z,60
2019-01-10T09:51:55.062Z,55
2019-01-10T09:52:54.560Z,55
2019-01-10T09:53:55.055Z,55
2019-01-10T09:54:54.789Z,55
2019-01-10T09:55:56.600Z,65
2019-01-10T09:56:55.106Z,65
2019-01-10T09:57:54.500Z,65
2019-01-10T09:58:54.513Z,65
2019-01-10T09:59:57.263Z,60
2019-01-10T10:00:54.710Z,60
2019-01-10T10:01:54.463Z,65
2019-01-10T10:02:54.696Z,65
2019-01-10T10:03:54.715Z,70
2019-01-10T10:04:54.746Z,65
2019-01-10T10:05:54.509Z,60
2019-01-10T10:06:54.667Z,60
2019-01-10T10:07:53.900Z,60
2019-01-10T10:08:54.382Z,60
2019-01-10T10:09:54.198Z,60
2019-01-10T10:10:54.864Z,55
2019-01-10T10:11:54.376Z,55
2019-01-10T10:12:54.594Z,55
2019-01-10T10:13:54.834Z,55
2019-01-10T10:14:54.825Z,55
2019-01-10T10:16:02.272Z,55
2019-01-10T10:16:54.789Z,60
2019-01-10T10:17:54.302Z,65
2019-01-10T10:18:53.823Z,65
2019-01-10T10:19:54.040Z,60
2019-01-10T10:20:54.246Z,60
2019-01-10T10:21:54.760Z,60
2019-01-10T10:22:54.468Z,55
2019-01-10T10:23:54.751Z,55
2019-01-10T10:24:54.286Z,55
2019-01-10T10:25:54.460Z,60
2019-01-10T10:27:00.338Z,55
2019-01-10T10:27:53.952Z,60
2019-01-10T10:28:54.415Z,55
2019-01-10T10:29:54.177Z,50
2019-01-10T10:30:55.186Z,55
2019-01-10T10:31:54.160Z,55
2019-01-10T10:32:54.128Z,65
2019-01-10T10:33:54.118Z,70
2019-01-10T10:34:54.342Z,70
2019-01-10T10:35:54.072Z,80
2019-01-10T10:36:54.345Z,80
2019-01-10T10:37:54.323Z,90
2019-01-10T10:38:54.566Z,95
2019-01-10T10:39:54.540Z,100
2019-01-10T10:40:53.796Z,100
2019-01-10T10:41:54.367Z,100
2019-01-10T10:42:53.507Z,100
2019-01-10T10:43:54.254Z,100
2019-01-10T10:44:53.739Z,100
2019-01-10T10:46:03.812Z,100
2019-01-10T10:46:54.455Z,95
2019-01-10T10:47:53.974Z,90
2019-01-10T10:48:53.969Z,90
2019-01-10T10:49:54.194Z,95
2019-01-10T10:50:53.945Z,100
2019-01-10T10:51:53.667Z,95
2019-01-10T10:52:54.475Z,95
2019-01-10T10:53:53.913Z,95
2019-01-10T10:54:54.382Z,95
2019-01-10T10:55:54.123Z,100
2019-01-10T10:56:55.479Z,105
2019-01-10T10:57:53.603Z,105
2019-01-10T10:58:54.117Z,105
2019-01-10T10:59:53.843Z,100
2019-01-10T11:00:54.079Z,100
2019-01-10T11:01:54.084Z,90
2019-01-10T11:02:54.327Z,90
2019-01-10T11:03:54.057Z,95
2019-01-10T11:04:54.107Z,100
2019-01-10T11:05:53.774Z,95
2019-01-10T11:06:53.760Z,90
2019-01-10T11:07:54.275Z,85
2019-01-10T11:08:53.734Z,80
2019-01-10T11:09:53.996Z,80
2019-01-10T11:10:53.723Z,75
2019-01-10T11:11:53.943Z,80
2019-01-10T11:12:53.700Z,85
2019-01-10T11:13:53.947Z,85
2019-01-10T11:14:57.552Z,85
2019-01-10T11:15:53.916Z,85
2019-01-10T11:16:54.164Z,80
2019-01-10T11:17:53.886Z,80
2019-01-10T11:18:53.886Z,75
2019-01-10T11:19:55.708Z,70
2019-01-10T11:20:54.134Z,70
2019-01-10T11:21:53.598Z,70
2019-01-10T11:22:54.110Z,70
2019-01-10T11:23:54.118Z,65
2019-01-10T11:24:53.092Z,60
2019-01-10T11:25:53.811Z,60
2019-01-10T11:26:56.351Z,55
2019-01-10T11:27:54.065Z,60
2019-01-10T11:28:54.026Z,65
2019-01-10T11:29:54.025Z,65
2019-01-10T11:30:53.482Z,60
2019-01-10T11:31:53.987Z,60
2019-01-10T11:32:56.232Z,60
2019-01-10T11:33:53.702Z,65
2019-01-10T11:34:53.732Z,65
2019-01-10T11:35:53.937Z,60
2019-01-10T11:36:53.679Z,60
2019-01-10T11:37:53.457Z,70
2019-01-10T11:38:54.861Z,70
2019-01-10T11:39:53.409Z,65
2019-01-10T11:40:53.624Z,60
2019-01-10T11:41:53.633Z,60
2019-01-10T11:42:53.169Z,60
2019-01-10T11:43:53.404Z,65
2019-01-10T11:44:53.830Z,70
2019-01-10T11:45:53.573Z,65
2019-01-10T11:46:53.832Z,60
2019-01-10T11:47:53.340Z,55
2019-01-10T11:48:53.632Z,55
2019-01-10T11:49:53.790Z,55
2019-01-10T11:50:53.548Z,55
2019-01-10T11:51:53.911Z,55
2019-01-10T11:52:53.768Z,60
2019-01-10T11:53:53.512Z,60
2019-01-10T11:54:54.802Z,60
2019-01-10T11:55:53.489Z,65
2019-01-10T11:56:53.476Z,65
2019-01-10T11:57:55.101Z,60
2019-01-10T11:58:53.692Z,60
2019-01-10T11:59:53.728Z,55
2019-01-10T12:00:53.178Z,55
2019-01-10T12:01:53.677Z,55
2019-01-10T12:02:53.164Z,55
2019-01-10T12:03:53.148Z,55
2019-01-10T12:04:53.363Z,55
2019-01-10T12:06:00.282Z,55
2019-01-10T12:06:53.389Z,55
2019-01-10T12:07:53.347Z,55
2019-01-10T12:08:53.586Z,55
2019-01-10T12:09:53.083Z,55
2019-01-10T12:10:53.342Z,55
2019-01-10T12:11:53.217Z,55
2019-01-10T12:12:53.352Z,60
2019-01-10T12:13:53.302Z,65
2019-01-10T12:14:53.294Z,60
2019-01-10T12:15:53.281Z,60
2019-01-10T12:16:53.031Z,65
2019-01-10T12:17:52.790Z,60
2019-01-10T12:19:01.288Z,60
2019-01-10T12:19:52.992Z,60
2019-01-10T12:20:53.458Z,60
2019-01-10T12:21:52.958Z,55
2019-01-10T12:22:53.528Z,55
2019-01-10T12:23:53.212Z,55
2019-01-10T12:24:53.219Z,55
2019-01-10T12:25:53.178Z,55
2019-01-10T12:26:53.180Z,55
2019-01-10T12:27:53.018Z,55
2019-01-10T12:28:53.376Z,55
2019-01-10T12:29:52.863Z,60
2019-01-10T12:30:53.118Z,60
2019-01-10T12:31:53.355Z,60
2019-01-10T12:32:53.348Z,65
2019-01-10T12:33:53.354Z,65
2019-01-10T12:34:52.839Z,70
2019-01-10T12:35:53.074Z,70
2019-01-10T12:37:00.214Z,70
2019-01-10T12:37:52.805Z,65
2019-01-10T12:38:52.771Z,65
2019-01-10T12:39:53.065Z,60
2019-01-10T12:40:52.739Z,60
2019-01-10T12:41:52.740Z,60
2019-01-10T12:42:52.800Z,60
2019-01-10T12:43:52.736Z,60
2019-01-10T12:44:52.800Z,60
2019-01-10T12:45:52.748Z,60
2019-01-10T12:46:52.680Z,60
2019-01-10T12:47:53.191Z,60
2019-01-10T12:48:52.415Z,60
2019-01-10T12:49:53.201Z,65
2019-01-10T12:50:53.185Z,65
2019-01-10T12:51:52.545Z,70
2019-01-10T12:52:52.929Z,70
2019-01-10T12:53:53.114Z,70
2019-01-10T12:54:52.878Z,75
2019-01-10T12:55:52.350Z,75
2019-01-10T12:56:53.081Z,80
2019-01-10T12:57:53.149Z,80
2019-01-10T12:58:53.055Z,80
2019-01-10T12:59:53.059Z,75
2019-01-10T13:00:53.177Z,75
2019-01-10T13:01:52.777Z,75
2019-01-10T13:02:52.772Z,75
2019-01-10T13:03:52.506Z,75
2019-01-10T13:04:52.755Z,70
2019-01-10T13:05:52.520Z,65
2019-01-10T13:06:52.500Z,65
2019-01-10T13:07:52.713Z,65
2019-01-10T13:08:52.454Z,65
2019-01-10T13:09:52.942Z,60
2019-01-10T13:10:52.675Z,55
2019-01-10T13:11:52.664Z,55
2019-01-10T13:12:52.711Z,55
2019-01-10T13:13:55.640Z,55
2019-01-10T13:14:52.381Z,55
2019-01-10T13:15:52.873Z,50
2019-01-10T13:16:56.319Z,50
2019-01-10T13:17:52.610Z,45
2019-01-10T13:18:52.589Z,45
2019-01-10T13:19:52.359Z,40
2019-01-10T13:20:52.332Z,40
2019-01-10T13:21:52.176Z,40
2019-01-10T13:22:52.301Z,35
2019-01-10T13:23:52.555Z,40
2019-01-10T13:24:53.575Z,35
2019-01-10T13:25:59.439Z,35
2019-01-10T13:26:52.591Z,35
2019-01-10T13:27:52.287Z,35
2019-01-10T13:28:51.780Z,35
2019-01-10T13:29:52.733Z,35
2019-01-10T13:30:52.905Z,35
2019-01-10T13:31:52.214Z,35
2019-01-10T13:32:52.308Z,35
2019-01-10T13:33:52.207Z,35
2019-01-10T13:34:52.178Z,35
2019-01-10T13:35:52.961Z,35
2019-01-10T13:36:52.150Z,35
2019-01-10T13:37:52.211Z,30
2019-01-10T13:38:52.629Z,30
2019-01-10T13:39:52.651Z,30
2019-01-10T13:40:52.129Z,30
2019-01-10T13:41:52.351Z,30
2019-01-10T13:42:52.102Z,30
2019-01-10T13:43:52.395Z,30
2019-01-10T13:44:52.070Z,30
2019-01-10T13:45:57.858Z,30
2019-01-10T13:47:00.243Z,30
2019-01-10T13:47:52.284Z,30
2019-01-10T13:48:58.415Z,30
2019-01-10T13:49:52.077Z,30
2019-01-10T13:50:51.509Z,30
2019-01-10T13:51:51.791Z,30
2019-01-10T13:52:51.734Z,30
2019-01-10T13:53:52.218Z,30
2019-01-10T13:54:51.967Z,30
2019-01-10T13:55:51.954Z,30
2019-01-10T13:56:51.705Z,30
2019-01-10T13:57:51.432Z,30
2019-01-10T13:58:51.728Z,30
2019-01-10T13:59:51.917Z,30
2019-01-10T14:00:51.901Z,30
2019-01-10T14:01:52.714Z,30
2019-01-10T14:02:51.933Z,30
2019-01-10T14:03:52.125Z,30
2019-01-10T14:04:51.595Z,25
2019-01-10T14:05:52.104Z,25
2019-01-10T14:06:51.587Z,25
2019-01-10T14:07:52.303Z,25
2019-01-10T14:08:52.046Z,30
2019-01-10T14:09:52.034Z,30
2019-01-10T14:10:51.537Z,30
2019-01-10T14:11:51.515Z,25
2019-01-10T14:12:52.024Z,25
2019-01-10T14:13:52.327Z,20
2019-01-10T14:14:51.737Z,20
2019-01-10T14:15:51.724Z,20
2019-01-10T14:16:51.967Z,20
2019-01-10T14:17:51.717Z,20
2019-01-10T14:18:52.534Z,20
2019-01-10T14:19:51.943Z,20
2019-01-10T14:20:51.685Z,20
2019-01-10T14:21:55.859Z,20
2019-01-10T14:22:51.658Z,15
2019-01-10T14:23:51.624Z,15
2019-01-10T14:24:52.131Z,15
2019-01-10T14:25:51.892Z,15
2019-01-10T14:26:52.130Z,15
2019-01-10T14:27:59.038Z,15
2019-01-10T14:28:51.667Z,15
2019-01-10T14:29:51.363Z,15
2019-01-10T14:30:51.845Z,15